This is the latest recevied weather packets stored in our database for station/object OE3XAM-13. If no packets are shown the sender has not sent any weather packets the latest 10 day(s).
| Time | Temp. | Humidity | Pressure | Rain* | Wind** | Luminosity | Snow |
|---|---|---|---|---|---|---|---|
| 1777691488 | 3.89° C | 81% | 990 hPa | 0 mm | - | - | - |
| 1777689688 | 4.44° C | 81% | 990 hPa | 0 mm | - | - | - |
| 1777687888 | 4.44° C | 81% | 990 hPa | 0 mm | - | - | - |
| 1777686088 | 5° C | 80% | 990 hPa | 0 mm | - | - | - |
| 1777684288 | 5° C | 79% | 990 hPa | 0 mm | - | - | - |
| 1777682488 | 5.56° C | 78% | 990 hPa | 0 mm | - | - | - |
| 1777680688 | 5.56° C | 77% | 990 hPa | 0 mm | - | - | - |
| 1777678888 | 6.11° C | 76% | 990 hPa | 0 mm | - | - | - |
| 1777677088 | 6.11° C | 75% | 990 hPa | 0 mm | - | - | - |
| 1777675288 | 6.67° C | 74% | 990 hPa | 0 mm | - | - | - |
| 1777673488 | 7.22° C | 72% | 991 hPa | 0 mm | - | - | - |
| 1777671688 | 7.78° C | 70% | 990 hPa | 0 mm | - | - | - |
| 1777669888 | 8.33° C | 69% | 990 hPa | 0 mm | - | - | - |
| 1777668088 | 8.89° C | 67% | 990 hPa | 0 mm | - | - | - |
| 1777666288 | 9.44° C | 65% | 990 hPa | 0 mm | - | - | - |
| 1777664488 | 10° C | 62% | 990 hPa | 0 mm | - | - | - |
| 1777662688 | 11.11° C | 60% | 990 hPa | 0 mm | - | - | - |
| 1777660888 | 12.78° C | 54% | 990 hPa | 0 mm | - | - | - |
| 1777659088 | 14.44° C | 48% | 990 hPa | 0 mm | - | - | - |
| 1777657288 | 16.67° C | 43% | 989 hPa | 0 mm | - | - | - |
| 1777655488 | 18.89° C | 31% | 989 hPa | 0 mm | - | - | - |
| 1777653688 | 20.56° C | 28% | 989 hPa | 0 mm | - | - | - |
| 1777651888 | 21.67° C | 26% | 990 hPa | 0 mm | - | - | - |
| 1777650088 | 21.67° C | 26% | 990 hPa | 0 mm | - | - | - |
| 1777648288 | 22.78° C | 25% | 990 hPa | 0 mm | - | - | - |
* Rain latest hour (hover to see other rain measurements)
** Current wind speed in m/s (hover to see current wind gust speed)